Time;durP1;ratioP1;P1;durP2;ratioP2;P2;SDS_P1;SDS_P2;PMS_P1;PMS_P2;Temp;Humidity;BMP_temperature;BMP_pressure;BME280_temperature;BME280_humidity;BME280_pressure;Samples;Min_cycle;Max_cycle;Signal;HPM_P1;HPM_P2
2021/03/23 00:01:28;;;;;;;;;;;;;;;;;;5071587;28;20017;-74
2021/03/23 00:03:54;;;;;;;;;;;;;;;;;;5071834;28;19946;-75
2021/03/23 00:06:20;;;;;;;;;;;;;;;;;;5053313;28;20454;-74
2021/03/23 00:08:46;;;;;;;;;;;;;;;;;;5065119;28;19971;-75
2021/03/23 00:11:11;;;;;;;;;;;;;;;;;;5054406;28;20464;-74
2021/03/23 00:13:37;;;;;;;;;;;;;;;;;;5071671;28;19949;-75
2021/03/23 00:16:03;;;;;;;;;;;;;;;;;;5056103;28;19972;-75
2021/03/23 00:18:29;;;;;;;;;;;;;;;;;;5051748;28;20411;-74
2021/03/23 00:20:55;;;;;;;;;;;;;;;;;;5054256;28;19925;-74
2021/03/23 00:23:21;;;;;;;;;;;;;;;;;;5071420;28;20033;-75
2021/03/23 00:25:47;;;;;;;;;;;;;;;;;;5058014;28;19932;-75
2021/03/23 00:28:13;;;;;;;;;;;;;;;;;;5051551;28;20045;-75
2021/03/23 00:30:39;;;;;;;;;;;;;;;;;;5051263;28;20042;-75
2021/03/23 00:33:05;;;;;;;;;;;;;;;;;;5060767;28;19932;-76
2021/03/23 00:35:31;;;;;;;;;;;;;;;;;;5061299;28;19954;-75
2021/03/23 00:37:57;;;;;;;;;;;;;;;;;;5071384;28;20414;-73
2021/03/23 00:40:22;;;;;;;;;;;;;;;;;;5071320;28;20005;-74
2021/03/23 00:42:48;;;;;;;;;;;;;;;;;;5070927;28;19937;-76
2021/03/23 00:45:14;;;;;;;;;;;;;;;;;;5062524;28;20546;-74
2021/03/23 00:47:40;;;;;;;;;;;;;;;;;;5033350;28;20311;-74
2021/03/23 00:50:06;;;;;;;;;;;;;;;;;;5051247;28;20007;-75
2021/03/23 00:52:32;;;;;;;;;;;;;;;;;;5033233;28;19930;-74
2021/03/23 00:54:58;;;;;;;;;;;;;;;;;;5057007;28;20334;-74
2021/03/23 00:57:23;;;;;;;;;;;;;;;;;;5070637;28;19924;-73
2021/03/23 00:59:49;;;;;;;;;;;;;;;;;;5051707;28;19979;-75
2021/03/23 01:02:15;;;;;;;;;;;;;;;;;;5051174;28;20288;-73
2021/03/23 01:04:41;;;;;;;;;;;;;;;;;;5054655;28;19994;-74
2021/03/23 01:07:07;;;;;;;;;;;;;;;;;;5071207;28;19935;-74
2021/03/23 01:09:33;;;;;;;;;;;;;;;;;;5071259;28;19966;-73
2021/03/23 01:11:59;;;;;;;;;;;;;;;;;;5070858;28;20313;-75
2021/03/23 01:14:24;;;;;;;;;;;;;;;;;;5069524;28;19946;-74
2021/03/23 01:16:50;;;;;;;;;;;;;;;;;;5071010;28;20087;-74
2021/03/23 01:19:16;;;;;;;;;;;;;;;;;;5053154;28;19965;-75
2021/03/23 01:21:42;;;;;;;;;;;;;;;;;;5052556;28;19958;-75
2021/03/23 01:24:08;;;;;;;;;;;;;;;;;;5051199;28;20615;-74
2021/03/23 01:26:34;;;;;;;;;;;;;;;;;;5051238;28;19931;-74
2021/03/23 01:29:00;;;;;;;;;;;;;;;;;;5034284;28;19928;-75
2021/03/23 01:31:26;;;;;;;;;;;;;;;;;;5052269;28;19949;-75
2021/03/23 01:33:52;;;;;;;;;;;;;;;;;;5065785;28;19951;-75
2021/03/23 01:36:17;;;;;;;;;;;;;;;;;;5037770;28;19938;-74
2021/03/23 01:38:43;;;;;;;;;;;;;;;;;;5053127;28;19935;-75
2021/03/23 01:41:09;;;;;;;;;;;;;;;;;;5071152;28;19947;-75
2021/03/23 01:43:35;;;;;;;;;;;;;;;;;;5074455;28;19949;-74
2021/03/23 01:46:01;;;;;;;;;;;;;;;;;;5057400;28;19938;-75
2021/03/23 01:48:27;;;;;;;;;;;;;;;;;;5054333;28;19941;-74
2021/03/23 01:50:53;;;;;;;;;;;;;;;;;;5054195;28;19947;-74
2021/03/23 01:53:18;;;;;;;;;;;;;;;;;;5053615;28;19947;-74
2021/03/23 01:55:44;;;;;;;;;;;;;;;;;;5068404;28;19938;-73
2021/03/23 01:58:10;;;;;;;;;;;;;;;;;;5070773;28;20125;-74
2021/03/23 02:00:36;;;;;;;;;;;;;;;;;;5067892;28;19957;-74
2021/03/23 02:03:02;;;;;;;;;;;;;;;;;;5055229;28;19936;-74
2021/03/23 02:05:28;;;;;;;;;;;;;;;;;;5055989;28;20381;-75
2021/03/23 02:07:54;;;;;;;;;;;;;;;;;;5052712;28;19939;-74
2021/03/23 02:10:19;;;;;;;;;;;;;;;;;;5073437;28;19951;-74
2021/03/23 02:12:45;;;;;;;;;;;;;;;;;;5073549;28;19928;-74
2021/03/23 02:15:11;;;;;;;;;;;;;;;;;;5070372;28;19946;-73
2021/03/23 02:17:37;;;;;;;;;;;;;;;;;;5070240;28;19941;-75
2021/03/23 02:20:03;;;;;;;;;;;;;;;;;;5072432;28;19939;-75
2021/03/23 02:22:29;;;;;;;;;;;;;;;;;;5071801;28;20029;-74
2021/03/23 02:24:55;;;;;;;;;;;;;;;;;;5069508;28;19958;-74
2021/03/23 02:27:21;;;;;;;;;;;;;;;;;;5073225;28;20001;-74
2021/03/23 02:29:47;;;;;;;;;;;;;;;;;;5069391;28;19929;-74
2021/03/23 02:32:13;;;;;;;;;;;;;;;;;;5072584;28;20035;-74
2021/03/23 02:34:38;;;;;;;;;;;;;;;;;;5070483;28;19944;-72
2021/03/23 02:37:04;;;;;;;;;;;;;;;;;;5070272;28;19960;-74
2021/03/23 02:39:30;;;;;;;;;;;;;;;;;;5072956;28;20012;-73
2021/03/23 02:41:56;;;;;;;;;;;;;;;;;;5071924;28;19931;-74
2021/03/23 02:44:22;;;;;;;;;;;;;;;;;;5072180;28;19950;-75
2021/03/23 02:46:48;;;;;;;;;;;;;;;;;;5070126;28;20024;-73
2021/03/23 02:49:14;;;;;;;;;;;;;;;;;;5072671;28;19977;-73
2021/03/23 02:51:40;;;;;;;;;;;;;;;;;;5072368;28;20447;-74
2021/03/23 02:54:06;;;;;;;;;;;;;;;;;;5071449;28;19984;-73
2021/03/23 02:56:31;;;;;;;;;;;;;;;;;;5066353;28;20380;-75
2021/03/23 02:58:57;;;;;;;;;;;;;;;;;;5070377;28;19979;-74
2021/03/23 03:01:23;;;;;;;;;;;;;;;;;;5072509;28;19925;-73
2021/03/23 03:03:49;;;;;;;;;;;;;;;;;;5051418;28;19944;-75
2021/03/23 03:06:15;;;;;;;;;;;;;;;;;;5070550;28;20413;-75
2021/03/23 03:08:41;;;;;;;;;;;;;;;;;;5072451;28;19936;-75
2021/03/23 03:11:07;;;;;;;;;;;;;;;;;;5070927;28;19941;-75
2021/03/23 03:13:33;;;;;;;;;;;;;;;;;;5071850;28;20033;-74
2021/03/23 03:15:59;;;;;;;;;;;;;;;;;;5070846;28;19977;-74
2021/03/23 03:18:25;;;;;;;;;;;;;;;;;;5071049;28;19941;-76
2021/03/23 03:20:51;;;;;;;;;;;;;;;;;;5072018;28;20030;-75
2021/03/23 03:23:17;;;;;;;;;;;;;;;;;;5051506;28;19945;-74
2021/03/23 03:25:42;;;;;;;;;;;;;;;;;;5068437;28;19927;-76
2021/03/23 03:28:08;;;;;;;;;;;;;;;;;;5072199;28;19924;-74
2021/03/23 03:30:34;;;;;;;;;;;;;;;;;;5071978;28;19946;-75
2021/03/23 03:33:00;;;;;;;;;;;;;;;;;;5051681;28;19993;-74
2021/03/23 03:35:26;;;;;;;;;;;;;;;;;;5070086;28;20299;-75
2021/03/23 03:37:52;;;;;;;;;;;;;;;;;;5052029;28;19954;-75
2021/03/23 03:40:18;;;;;;;;;;;;;;;;;;5069001;28;19934;-75
2021/03/23 03:42:44;;;;;;;;;;;;;;;;;;5070580;28;20331;-74
2021/03/23 03:45:10;;;;;;;;;;;;;;;;;;5052609;28;19943;-74
2021/03/23 03:47:36;;;;;;;;;;;;;;;;;;5071892;28;20378;-75
2021/03/23 03:50:02;;;;;;;;;;;;;;;;;;5071122;28;19935;-75
2021/03/23 03:52:28;;;;;;;;;;;;;;;;;;5068415;28;19939;-75
2021/03/23 03:54:53;;;;;;;;;;;;;;;;;;5070367;28;19964;-76
2021/03/23 03:57:19;;;;;;;;;;;;;;;;;;5068945;28;19930;-75
2021/03/23 03:59:45;;;;;;;;;;;;;;;;;;5051597;28;20495;-75
2021/03/23 04:02:11;;;;;;;;;;;;;;;;;;5071235;28;19929;-74
2021/03/23 04:04:37;;;;;;;;;;;;;;;;;;5068637;28;20349;-75
2021/03/23 04:07:03;;;;;;;;;;;;;;;;;;5069389;28;19953;-74
2021/03/23 04:09:29;;;;;;;;;;;;;;;;;;5071478;28;20333;-75
2021/03/23 04:11:54;;;;;;;;;;;;;;;;;;5070914;28;19946;-73
2021/03/23 04:14:20;;;;;;;;;;;;;;;;;;5071172;28;19949;-74
2021/03/23 04:19:12;;;;;;;;;;;;;;;;;;5068431;22;19976;-71
2021/03/23 04:21:38;;;;;;;;;;;;;;;;;;5050115;28;19934;-71
2021/03/23 04:24:04;;;;;;;;;;;;;;;;;;5049202;28;19962;-71
2021/03/23 04:26:30;;;;;;;;;;;;;;;;;;5032086;28;19923;-71
2021/03/23 04:28:55;;;;;;;;;;;;;;;;;;5051086;28;19946;-71
2021/03/23 04:31:21;;;;;;;;;;;;;;;;;;5040365;28;20405;-71
2021/03/23 04:33:47;;;;;;;;;;;;;;;;;;5040972;28;19952;-71
2021/03/23 04:36:13;;;;;;;;;;;;;;;;;;5043611;28;19924;-72
2021/03/23 04:38:39;;;;;;;;;;;;;;;;;;5042387;28;20059;-71
2021/03/23 04:41:05;;;;;;;;;;;;;;;;;;5039738;28;19975;-70
2021/03/23 04:43:31;;;;;;;;;;;;;;;;;;5044601;28;19934;-70
2021/03/23 04:45:57;;;;;;;;;;;;;;;;;;5033481;28;20023;-71
2021/03/23 04:48:23;;;;;;;;;;;;;;;;;;5050791;28;19950;-71
2021/03/23 04:50:49;;;;;;;;;;;;;;;;;;5050603;28;20499;-70
2021/03/23 04:53:15;;;;;;;;;;;;;;;;;;5027418;28;19943;-71
2021/03/23 04:55:41;;;;;;;;;;;;;;;;;;5050552;28;19942;-71
2021/03/23 04:58:06;;;;;;;;;;;;;;;;;;5032845;28;20398;-71
2021/03/23 05:00:32;;;;;;;;;;;;;;;;;;5050742;28;19929;-72
2021/03/23 05:02:58;;;;;;;;;;;;;;;;;;5049751;28;19946;-71
2021/03/23 05:05:24;;;;;;;;;;;;;;;;;;5039905;28;19927;-71
2021/03/23 05:07:50;;;;;;;;;;;;;;;;;;5050004;28;20354;-70
2021/03/23 05:10:16;;;;;;;;;;;;;;;;;;5048665;28;19947;-70
2021/03/23 05:12:41;;;;;;;;;;;;;;;;;;5050090;28;19925;-70
2021/03/23 05:15:07;;;;;;;;;;;;;;;;;;5041585;28;19973;-71
2021/03/23 05:17:33;;;;;;;;;;;;;;;;;;5054082;28;19982;-70
2021/03/23 05:19:59;;;;;;;;;;;;;;;;;;5054746;28;19930;-71
2021/03/23 05:22:25;;;;;;;;;;;;;;;;;;5050329;28;20009;-71
2021/03/23 05:24:51;;;;;;;;;;;;;;;;;;5040978;28;20396;-71
2021/03/23 05:27:17;;;;;;;;;;;;;;;;;;5054660;28;19988;-71
2021/03/23 05:29:45;;;;;;;;;;;;;;;;;;5048114;28;19926;-71
2021/03/23 05:32:11;;;;;;;;;;;;;;;;;;5048032;28;19954;-71
2021/03/23 05:34:37;;;;;;;;;;;;;;;;;;5048287;28;20288;-71
2021/03/23 05:37:02;;;;;;;;;;;;;;;;;;5048080;28;19971;-71
2021/03/23 05:39:28;;;;;;;;;;;;;;;;;;5043829;28;19980;-71
2021/03/23 05:41:54;;;;;;;;;;;;;;;;;;5044179;28;19935;-71
2021/03/23 05:44:20;;;;;;;;;;;;;;;;;;5047718;28;20028;-71
2021/03/23 05:46:46;;;;;;;;;;;;;;;;;;5046077;28;20023;-71
2021/03/23 05:49:12;;;;;;;;;;;;;;;;;;5044465;28;19953;-71
2021/03/23 05:51:38;;;;;;;;;;;;;;;;;;5053591;28;19946;-71
2021/03/23 05:54:03;;;;;;;;;;;;;;;;;;5029819;28;19980;-70
2021/03/23 05:56:29;;;;;;;;;;;;;;;;;;5044293;28;19938;-71
2021/03/23 05:58:55;;;;;;;;;;;;;;;;;;5044093;28;19947;-70
2021/03/23 06:01:21;;;;;;;;;;;;;;;;;;5042435;28;20291;-71
2021/03/23 06:03:47;;;;;;;;;;;;;;;;;;5046042;28;19936;-71
2021/03/23 06:06:13;;;;;;;;;;;;;;;;;;5052767;28;20550;-71
2021/03/23 06:08:39;;;;;;;;;;;;;;;;;;5047905;28;19943;-71
2021/03/23 06:11:05;;;;;;;;;;;;;;;;;;5045676;28;20367;-71
2021/03/23 06:13:30;;;;;;;;;;;;;;;;;;5043738;28;19959;-72
2021/03/23 06:15:56;;;;;;;;;;;;;;;;;;5053324;28;20314;-70
2021/03/23 06:18:22;;;;;;;;;;;;;;;;;;5045157;28;19979;-70
2021/03/23 06:20:48;;;;;;;;;;;;;;;;;;5043901;28;19933;-64
2021/03/23 06:23:14;;;;;;;;;;;;;;;;;;5042823;28;20007;-65
2021/03/23 06:25:40;;;;;;;;;;;;;;;;;;5050744;28;19941;-65
2021/03/23 06:28:06;;;;;;;;;;;;;;;;;;5044619;28;20530;-70
2021/03/23 06:30:32;;;;;;;;;;;;;;;;;;5035028;28;19938;-70
2021/03/23 06:32:57;;;;;;;;;;;;;;;;;;5050907;28;20448;-71
2021/03/23 06:35:23;;;;;;;;;;;;;;;;;;5032409;28;20101;-70
2021/03/23 06:37:49;;;;;;;;;;;;;;;;;;5049163;28;19950;-71
2021/03/23 06:40:15;;;;;;;;;;;;;;;;;;5052236;28;19926;-70
2021/03/23 06:42:41;;;;;;;;;;;;;;;;;;5051269;28;19961;-70
2021/03/23 06:45:07;;;;;;;;;;;;;;;;;;5053181;28;19935;-70
2021/03/23 06:47:35;;;;;;;;;;;;;;;;;;5024020;28;20372;-70
2021/03/23 06:50:01;;;;;;;;;;;;;;;;;;5046005;28;20028;-70
2021/03/23 06:52:26;;;;;;;;;;;;;;;;;;5029225;28;20010;-69
2021/03/23 06:54:52;;;;;;;;;;;;;;;;;;5049785;28;19930;-70
2021/03/23 06:57:21;;;;;;;;;;;;;;;;;;5052640;28;20059;-71
2021/03/23 06:59:47;;;;;;;;;;;;;;;;;;5029173;28;19939;-70
2021/03/23 07:02:12;;;;;;;;;;;;;;;;;;5036455;28;19934;-71
2021/03/23 07:04:40;;;;;;;;;;;;;;;;;;5051457;28;20425;-72
2021/03/23 07:07:06;;;;;;;;;;;;;;;;;;5055202;28;20033;-70
2021/03/23 07:09:32;;;;;;;;;;;;;;;;;;5052550;28;20379;-70
2021/03/23 07:11:58;;;;;;;;;;;;;;;;;;5045254;28;19957;-72
2021/03/23 07:14:24;;;;;;;;;;;;;;;;;;5046935;28;20459;-70
2021/03/23 07:16:49;;;;;;;;;;;;;;;;;;5047646;28;19936;-70
2021/03/23 07:19:15;;;;;;;;;;;;;;;;;;5045635;28;19932;-70
2021/03/23 07:21:41;;;;;;;;;;;;;;;;;;5029760;28;20314;-70
2021/03/23 07:24:07;;;;;;;;;;;;;;;;;;5051720;28;19985;-70
2021/03/23 07:26:34;;;;;;;;;;;;;;;;;;5050404;28;20140;-69
2021/03/23 07:29:00;;;;;;;;;;;;;;;;;;5046659;28;19959;-70
2021/03/23 07:31:26;;;;;;;;;;;;;;;;;;5033228;28;19947;-70
2021/03/23 07:33:52;;;;;;;;;;;;;;;;;;5048839;28;20311;-70
2021/03/23 07:36:18;;;;;;;;;;;;;;;;;;5045216;28;19984;-70
2021/03/23 07:38:43;;;;;;;;;;;;;;;;;;5040326;28;19948;-70
2021/03/23 07:41:09;;;;;;;;;;;;;;;;;;5045251;28;20003;-70
2021/03/23 07:43:35;;;;;;;;;;;;;;;;;;5040609;28;19929;-70
2021/03/23 07:46:01;;;;;;;;;;;;;;;;;;5047579;28;20504;-70
2021/03/23 07:48:27;;;;;;;;;;;;;;;;;;5032383;28;19946;-70
2021/03/23 07:50:55;;;;;;;;;;;;;;;;;;5033202;28;20030;-70
2021/03/23 07:53:21;;;;;;;;;;;;;;;;;;5042207;28;20008;-71
2021/03/23 07:55:47;;;;;;;;;;;;;;;;;;5040512;28;19995;-71
2021/03/23 07:58:13;;;;;;;;;;;;;;;;;;5048572;28;19946;-71
2021/03/23 08:00:40;;;;;;;;;;;;;;;;;;5046293;28;19929;-70
2021/03/23 08:03:06;;;;;;;;;;;;;;;;;;5044861;28;20392;-70
2021/03/23 08:05:32;;;;;;;;;;;;;;;;;;5047346;28;19969;-70
2021/03/23 08:07:57;;;;;;;;;;;;;;;;;;5044473;28;20437;-70
2021/03/23 08:10:23;;;;;;;;;;;;;;;;;;5030765;28;20049;-70
2021/03/23 08:12:49;;;;;;;;;;;;;;;;;;5029401;28;19934;-70
2021/03/23 08:15:16;;;;;;;;;;;;;;;;;;5048807;28;19924;-70
2021/03/23 08:17:42;;;;;;;;;;;;;;;;;;5043575;28;20071;-69
2021/03/23 08:20:08;;;;;;;;;;;;;;;;;;5041835;28;19973;-70
2021/03/23 08:22:34;;;;;;;;;;;;;;;;;;5044510;28;19931;-70
2021/03/23 08:25:00;;;;;;;;;;;;;;;;;;5046679;28;20273;-70
2021/03/23 08:27:26;;;;;;;;;;;;;;;;;;5029188;28;20299;-71
2021/03/23 08:29:52;;;;;;;;;;;;;;;;;;5047056;28;19935;-70
2021/03/23 08:32:18;;;;;;;;;;;;;;;;;;5024754;28;19955;-71
2021/03/23 08:34:44;;;;;;;;;;;;;;;;;;5050365;28;19947;-71
2021/03/23 08:37:10;;;;;;;;;;;;;;;;;;5048182;28;19948;-70
2021/03/23 08:39:36;;;;;;;;;;;;;;;;;;5050005;28;20661;-71
2021/03/23 08:42:02;;;;;;;;;;;;;;;;;;5046959;28;19936;-71
2021/03/23 08:44:28;;;;;;;;;;;;;;;;;;5047921;28;19924;-70
2021/03/23 08:46:54;;;;;;;;;;;;;;;;;;5045323;28;19936;-71
2021/03/23 08:49:20;;;;;;;;;;;;;;;;;;5043536;28;19930;-70
2021/03/23 08:51:46;;;;;;;;;;;;;;;;;;5050067;28;20037;-70
2021/03/23 08:54:12;;;;;;;;;;;;;;;;;;5045113;28;19965;-70
2021/03/23 08:56:38;;;;;;;;;;;;;;;;;;5045962;28;20428;-70
2021/03/23 08:59:04;;;;;;;;;;;;;;;;;;5049883;28;19942;-70
2021/03/23 09:01:29;;;;;;;;;;;;;;;;;;5032979;28;20026;-70
2021/03/23 09:03:55;;;;;;;;;;;;;;;;;;5054549;28;20390;-71
2021/03/23 09:06:23;;;;;;;;;;;;;;;;;;5045187;28;19930;-71
2021/03/23 09:08:49;;;;;;;;;;;;;;;;;;5044015;28;20471;-71
2021/03/23 09:11:14;;;;;;;;;;;;;;;;;;5046312;28;19953;-71
2021/03/23 09:13:41;;;;;;;;;;;;;;;;;;5050573;28;19941;-71
2021/03/23 09:16:07;;;;;;;;;;;;;;;;;;5049919;28;19924;-71
2021/03/23 09:18:35;;;;;;;;;;;;;;;;;;5046973;28;20392;-71
2021/03/23 09:21:01;;;;;;;;;;;;;;;;;;5048101;28;19929;-71
2021/03/23 09:23:27;;;;;;;;;;;;;;;;;;5050263;28;20396;-70
2021/03/23 09:25:54;;;;;;;;;;;;;;;;;;5035570;28;19938;-71
2021/03/23 09:28:20;;;;;;;;;;;;;;;;;;5046543;28;20330;-71
2021/03/23 09:30:46;;;;;;;;;;;;;;;;;;5034538;28;19950;-71
2021/03/23 09:33:12;;;;;;;;;;;;;;;;;;5026685;28;20264;-71
2021/03/23 09:35:38;;;;;;;;;;;;;;;;;;5045104;28;19931;-71
2021/03/23 09:38:04;;;;;;;;;;;;;;;;;;5050316;28;19942;-71
2021/03/23 09:40:30;;;;;;;;;;;;;;;;;;5054083;28;20025;-71
2021/03/23 09:42:56;;;;;;;;;;;;;;;;;;5042459;28;20356;-71
2021/03/23 09:45:22;;;;;;;;;;;;;;;;;;5049123;28;19927;-71
2021/03/23 09:47:48;;;;;;;;;;;;;;;;;;5048705;28;19955;-71
2021/03/23 09:50:14;;;;;;;;;;;;;;;;;;5049035;28;20023;-71
2021/03/23 09:52:40;;;;;;;;;;;;;;;;;;5049677;28;19939;-71
2021/03/23 09:55:06;;;;;;;;;;;;;;;;;;5045155;28;20028;-72
2021/03/23 09:57:32;;;;;;;;;;;;;;;;;;5047429;28;19964;-71
2021/03/23 09:59:58;;;;;;;;;;;;;;;;;;5047275;28;20568;-71
2021/03/23 10:02:24;;;;;;;;;;;;;;;;;;5030764;28;20010;-72
2021/03/23 10:04:49;;;;;;;;;;;;;;;;;;5053557;28;20427;-71
2021/03/23 10:07:15;;;;;;;;;;;;;;;;;;5047106;28;20411;-71
2021/03/23 10:09:41;;;;;;;;;;;;;;;;;;5035435;28;19931;-71
2021/03/23 10:12:07;;;;;;;;;;;;;;;;;;5046051;28;19952;-72
2021/03/23 10:14:33;;;;;;;;;;;;;;;;;;5047066;28;19926;-72
2021/03/23 10:16:59;;;;;;;;;;;;;;;;;;5047575;28;19967;-71
2021/03/23 10:19:25;;;;;;;;;;;;;;;;;;5092681;22;20424;-72
2021/03/23 10:21:51;;;;;;;;;;;;;;;;;;5086723;28;20661;-75
2021/03/23 10:24:17;;;;;;;;;;;;;;;;;;5080273;28;19936;-75
2021/03/23 10:26:44;;;;;;;;;;;;;;;;;;5070206;28;19928;-74
2021/03/23 10:29:10;;;;;;;;;;;;;;;;;;5080534;28;19946;-73
2021/03/23 10:31:36;;;;;;;;;;;;;;;;;;5095638;28;20336;-75
2021/03/23 10:34:02;;;;;;;;;;;;;;;;;;5094164;28;19933;-75
2021/03/23 10:36:28;;;;;;;;;;;;;;;;;;5084699;28;20018;-75
2021/03/23 10:38:54;;;;;;;;;;;;;;;;;;5091838;28;19944;-72
2021/03/23 10:41:20;;;;;;;;;;;;;;;;;;5071224;28;19930;-74
2021/03/23 10:43:46;;;;;;;;;;;;;;;;;;5044750;28;20024;-72
2021/03/23 10:46:11;;;;;;;;;;;;;;;;;;5059774;28;19929;-73
2021/03/23 10:48:38;;;;;;;;;;;;;;;;;;5061217;28;19942;-73
2021/03/23 10:51:04;;;;;;;;;;;;;;;;;;5063558;28;20018;-74
2021/03/23 10:53:30;;;;;;;;;;;;;;;;;;5061412;28;20465;-74
2021/03/23 10:55:56;;;;;;;;;;;;;;;;;;5063094;28;19937;-74
2021/03/23 10:58:22;;;;;;;;;;;;;;;;;;5058607;28;19949;-74
2021/03/23 11:00:48;;;;;;;;;;;;;;;;;;5072765;28;19936;-75
2021/03/23 11:03:14;;;;;;;;;;;;;;;;;;5059051;28;19931;-73
2021/03/23 11:05:39;;;;;;;;;;;;;;;;;;5072511;28;19971;-74
2021/03/23 11:08:05;;;;;;;;;;;;;;;;;;5072981;28;19939;-74
2021/03/23 11:10:31;;;;;;;;;;;;;;;;;;5060686;28;20039;-77
2021/03/23 11:12:57;;;;;;;;;;;;;;;;;;5069012;28;20540;-75
2021/03/23 11:15:23;;;;;;;;;;;;;;;;;;5058070;28;19980;-75
2021/03/23 11:17:51;;;;;;;;;;;;;;;;;;5071951;28;19950;-74
2021/03/23 11:20:17;;;;;;;;;;;;;;;;;;5062292;28;20581;-74
2021/03/23 11:22:43;;;;;;;;;;;;;;;;;;5064498;28;19928;-75
2021/03/23 11:25:11;;;;;;;;;;;;;;;;;;5071094;28;20455;-72
2021/03/23 11:27:37;;;;;;;;;;;;;;;;;;5064060;28;19973;-74
2021/03/23 11:30:03;;;;;;;;;;;;;;;;;;5065929;28;20487;-73
2021/03/23 11:32:29;;;;;;;;;;;;;;;;;;5034149;28;20112;-74
2021/03/23 11:34:55;;;;;;;;;;;;;;;;;;5067074;28;19931;-78
2021/03/23 11:37:21;;;;;;;;;;;;;;;;;;5068483;28;19971;-75
2021/03/23 11:39:47;;;;;;;;;;;;;;;;;;5069030;28;19926;-76
2021/03/23 11:42:12;;;;;;;;;;;;;;;;;;5071988;28;19924;-74
2021/03/23 11:44:38;;;;;;;;;;;;;;;;;;5069795;28;19926;-73
2021/03/23 11:47:05;;;;;;;;;;;;;;;;;;5066289;28;20031;-74
2021/03/23 11:49:31;;;;;;;;;;;;;;;;;;5069649;28;19989;-74
2021/03/23 11:51:57;;;;;;;;;;;;;;;;;;5054592;28;19977;-73
2021/03/23 11:54:25;;;;;;;;;;;;;;;;;;5072397;28;19927;-75
2021/03/23 11:56:51;;;;;;;;;;;;;;;;;;5058136;28;19934;-74
2021/03/23 11:59:17;;;;;;;;;;;;;;;;;;5052290;28;19945;-74
2021/03/23 12:01:43;;;;;;;;;;;;;;;;;;5067852;28;20014;-71
2021/03/23 12:04:09;;;;;;;;;;;;;;;;;;5077244;28;20343;-74
2021/03/23 12:06:35;;;;;;;;;;;;;;;;;;5080724;28;19924;-73
2021/03/23 12:09:00;;;;;;;;;;;;;;;;;;5071044;28;19982;-73
2021/03/23 12:11:26;;;;;;;;;;;;;;;;;;5049878;28;19961;-73
2021/03/23 12:13:52;;;;;;;;;;;;;;;;;;5064641;28;20418;-75
2021/03/23 12:16:18;;;;;;;;;;;;;;;;;;5068487;28;19927;-72
2021/03/23 12:18:44;;;;;;;;;;;;;;;;;;5056348;28;20344;-70
2021/03/23 12:21:10;;;;;;;;;;;;;;;;;;5055765;28;19929;-69
2021/03/23 12:23:36;;;;;;;;;;;;;;;;;;5061740;28;19924;-72
2021/03/23 12:26:01;;;;;;;;;;;;;;;;;;5059006;28;19979;-72
2021/03/23 12:28:27;;;;;;;;;;;;;;;;;;5062094;28;19950;-72
2021/03/23 12:30:53;;;;;;;;;;;;;;;;;;5061217;28;19966;-72
2021/03/23 12:33:19;;;;;;;;;;;;;;;;;;5058975;28;20313;-72
2021/03/23 12:35:45;;;;;;;;;;;;;;;;;;5041859;28;19930;-74
2021/03/23 12:38:11;;;;;;;;;;;;;;;;;;5039607;28;20038;-72
2021/03/23 12:40:37;;;;;;;;;;;;;;;;;;5055898;28;19931;-72
2021/03/23 12:43:03;;;;;;;;;;;;;;;;;;5059482;28;19935;-72
2021/03/23 12:45:29;;;;;;;;;;;;;;;;;;5059175;28;19968;-72
2021/03/23 12:47:55;;;;;;;;;;;;;;;;;;5060148;28;20437;-71
2021/03/23 12:50:23;;;;;;;;;;;;;;;;;;5058303;28;19926;-71
2021/03/23 12:52:49;;;;;;;;;;;;;;;;;;5053837;28;19934;-72
2021/03/23 12:55:15;;;;;;;;;;;;;;;;;;5058572;28;20317;-71
2021/03/23 12:57:40;;;;;;;;;;;;;;;;;;5035163;28;19959;-71
2021/03/23 13:00:06;;;;;;;;;;;;;;;;;;5059449;28;19934;-72
2021/03/23 13:02:32;;;;;;;;;;;;;;;;;;5041569;28;19935;-71
2021/03/23 13:04:58;;;;;;;;;;;;;;;;;;5058189;28;20013;-72
2021/03/23 13:07:24;;;;;;;;;;;;;;;;;;5041768;28;20306;-72
2021/03/23 13:09:50;;;;;;;;;;;;;;;;;;5055858;28;19933;-72
2021/03/23 13:12:16;;;;;;;;;;;;;;;;;;5057713;28;19952;-70
2021/03/23 13:14:43;;;;;;;;;;;;;;;;;;5059189;28;20340;-72
2021/03/23 13:17:09;;;;;;;;;;;;;;;;;;5061108;28;19926;-70
2021/03/23 13:19:35;;;;;;;;;;;;;;;;;;5066255;28;20067;-72
2021/03/23 13:22:00;;;;;;;;;;;;;;;;;;5065248;28;19932;-72
2021/03/23 13:24:26;;;;;;;;;;;;;;;;;;5061152;28;19927;-72
2021/03/23 13:26:52;;;;;;;;;;;;;;;;;;5060555;28;20028;-72
2021/03/23 13:29:19;;;;;;;;;;;;;;;;;;5068471;28;19940;-73
2021/03/23 13:31:47;;;;;;;;;;;;;;;;;;5064776;28;20311;-73
2021/03/23 13:34:13;;;;;;;;;;;;;;;;;;5061336;28;19930;-72
2021/03/23 13:36:38;;;;;;;;;;;;;;;;;;5062225;28;19930;-72
2021/03/23 13:39:04;;;;;;;;;;;;;;;;;;5066712;28;20439;-73
2021/03/23 13:41:30;;;;;;;;;;;;;;;;;;5064646;28;19939;-73
2021/03/23 13:43:56;;;;;;;;;;;;;;;;;;5060515;28;19933;-72
2021/03/23 13:46:22;;;;;;;;;;;;;;;;;;5069193;28;20551;-71
2021/03/23 13:48:48;;;;;;;;;;;;;;;;;;5063317;28;19948;-72
2021/03/23 13:51:14;;;;;;;;;;;;;;;;;;5063356;28;19946;-73
2021/03/23 13:53:41;;;;;;;;;;;;;;;;;;5063179;28;20528;-70
2021/03/23 13:56:07;;;;;;;;;;;;;;;;;;5062010;28;19976;-71
2021/03/23 13:58:32;;;;;;;;;;;;;;;;;;5059021;28;19951;-72
2021/03/23 14:00:58;;;;;;;;;;;;;;;;;;5064673;28;20017;-72
2021/03/23 14:03:24;;;;;;;;;;;;;;;;;;5044829;28;19921;-72
2021/03/23 14:05:52;;;;;;;;;;;;;;;;;;5044557;28;20404;-71
2021/03/23 14:08:18;;;;;;;;;;;;;;;;;;5063389;28;20021;-72
2021/03/23 14:10:43;;;;;;;;;;;;;;;;;;5063663;28;20004;-71
2021/03/23 14:13:09;;;;;;;;;;;;;;;;;;5061872;28;19925;-72
2021/03/23 14:15:36;;;;;;;;;;;;;;;;;;5068957;28;19945;-73
2021/03/23 14:18:02;;;;;;;;;;;;;;;;;;5070016;28;19949;-73
2021/03/23 14:20:28;;;;;;;;;;;;;;;;;;5055500;28;20320;-72
2021/03/23 14:22:54;;;;;;;;;;;;;;;;;;5073433;28;19938;-72
2021/03/23 14:25:20;;;;;;;;;;;;;;;;;;5066087;28;19925;-71
2021/03/23 14:27:46;;;;;;;;;;;;;;;;;;5054014;28;19943;-72
2021/03/23 14:30:12;;;;;;;;;;;;;;;;;;5072363;28;19929;-71
2021/03/23 14:32:37;;;;;;;;;;;;;;;;;;5054280;28;19952;-72
2021/03/23 14:35:03;;;;;;;;;;;;;;;;;;5050970;28;19931;-72
2021/03/23 14:37:29;;;;;;;;;;;;;;;;;;5076286;28;19943;-73
2021/03/23 14:39:56;;;;;;;;;;;;;;;;;;5066857;28;19935;-73
2021/03/23 14:42:22;;;;;;;;;;;;;;;;;;5062372;28;19938;-70
2021/03/23 14:44:48;;;;;;;;;;;;;;;;;;5066927;28;19935;-72
2021/03/23 14:47:14;;;;;;;;;;;;;;;;;;5058648;28;19935;-71
2021/03/23 14:49:40;;;;;;;;;;;;;;;;;;5055176;28;20204;-71
2021/03/23 14:52:06;;;;;;;;;;;;;;;;;;5064644;28;20378;-72
2021/03/23 14:54:31;;;;;;;;;;;;;;;;;;5046843;28;20021;-73
2021/03/23 14:56:57;;;;;;;;;;;;;;;;;;5060804;28;19933;-72
2021/03/23 14:59:23;;;;;;;;;;;;;;;;;;5063209;28;20042;-73
2021/03/23 15:01:49;;;;;;;;;;;;;;;;;;5068288;28;20475;-71
2021/03/23 15:04:15;;;;;;;;;;;;;;;;;;5070565;28;19925;-70
2021/03/23 15:06:41;;;;;;;;;;;;;;;;;;5039900;28;19941;-71
2021/03/23 15:09:07;;;;;;;;;;;;;;;;;;5036163;28;20029;-72
2021/03/23 15:11:33;;;;;;;;;;;;;;;;;;5053391;28;20033;-72
2021/03/23 15:13:58;;;;;;;;;;;;;;;;;;5071721;28;19939;-74
2021/03/23 15:16:24;;;;;;;;;;;;;;;;;;5065525;28;19950;-70
2021/03/23 15:18:52;;;;;;;;;;;;;;;;;;5050825;28;19983;-72
2021/03/23 15:21:18;;;;;;;;;;;;;;;;;;5060356;28;19982;-70
2021/03/23 15:23:46;;;;;;;;;;;;;;;;;;5041091;28;19934;-73
2021/03/23 15:26:12;;;;;;;;;;;;;;;;;;5065444;28;19955;-73
2021/03/23 15:28:38;;;;;;;;;;;;;;;;;;5056804;28;19948;-72
2021/03/23 15:31:03;;;;;;;;;;;;;;;;;;5049397;28;20019;-72
2021/03/23 15:33:29;;;;;;;;;;;;;;;;;;5070469;28;19953;-76
2021/03/23 15:35:55;;;;;;;;;;;;;;;;;;5039886;28;20330;-72
2021/03/23 15:38:21;;;;;;;;;;;;;;;;;;5071587;28;19948;-72
2021/03/23 15:40:47;;;;;;;;;;;;;;;;;;5051655;28;19927;-73
2021/03/23 15:43:13;;;;;;;;;;;;;;;;;;5060751;28;19928;-71
2021/03/23 15:45:39;;;;;;;;;;;;;;;;;;5077332;28;19927;-71
2021/03/23 15:48:05;;;;;;;;;;;;;;;;;;5074383;28;20375;-71
2021/03/23 15:50:30;;;;;;;;;;;;;;;;;;5075752;28;19933;-72
2021/03/23 15:52:59;;;;;;;;;;;;;;;;;;5060005;28;19983;-71
2021/03/23 15:55:25;;;;;;;;;;;;;;;;;;5044330;28;20018;-71
2021/03/23 15:57:51;;;;;;;;;;;;;;;;;;5064325;28;19986;-73
2021/03/23 16:00:16;;;;;;;;;;;;;;;;;;5056218;28;19928;-73
2021/03/23 16:02:42;;;;;;;;;;;;;;;;;;5078517;28;20154;-71
2021/03/23 16:05:08;;;;;;;;;;;;;;;;;;5076916;28;19933;-72
2021/03/23 16:07:34;;;;;;;;;;;;;;;;;;5061305;28;20389;-70
2021/03/23 16:10:00;;;;;;;;;;;;;;;;;;5059281;28;19933;-71
2021/03/23 16:12:28;;;;;;;;;;;;;;;;;;5052518;28;20038;-71
2021/03/23 16:14:54;;;;;;;;;;;;;;;;;;5057579;28;19973;-71
2021/03/23 16:17:19;;;;;;;;;;;;;;;;;;5080522;28;20447;-71
2021/03/23 16:19:45;;;;;;;;;;;;;;;;;;5101307;22;20416;-68
2021/03/23 16:22:11;;;;;;;;;;;;;;;;;;5086154;28;19931;-68
2021/03/23 16:24:37;;;;;;;;;;;;;;;;;;5087968;28;19936;-66
2021/03/23 16:27:03;;;;;;;;;;;;;;;;;;5064429;28;20360;-67
2021/03/23 16:29:29;;;;;;;;;;;;;;;;;;5072377;28;20007;-68
2021/03/23 16:31:55;;;;;;;;;;;;;;;;;;5074179;28;19957;-67
2021/03/23 16:34:24;;;;;;;;;;;;;;;;;;5074602;28;19924;-68
2021/03/23 16:36:49;;;;;;;;;;;;;;;;;;5073182;28;19941;-68
2021/03/23 16:39:15;;;;;;;;;;;;;;;;;;5067938;28;19944;-68